Time;durP1;ratioP1;P1;durP2;ratioP2;P2;SDS_P1;SDS_P2;PMS_P1;PMS_P2;Temp;Humidity;BMP_temperature;BMP_pressure;BME280_temperature;BME280_humidity;BME280_pressure;Samples;Min_cycle;Max_cycle;Signal;HPM_P1;HPM_P2
2022/12/21 00:01:08;;;;;;;40.33;16.92;;;;;;;;;;4905737;29;20125;-86
2022/12/21 00:03:34;;;;;;;38.30;17.42;;;;;;;;;;4905786;29;20028;-85
2022/12/21 00:06:00;;;;;;;40.60;17.42;;;;;;;;;;4905596;29;20044;-85
2022/12/21 00:08:26;;;;;;;39.03;16.75;;;;;;;;;;4922301;29;20020;-85
2022/12/21 00:10:58;;;;;;;39.38;17.00;;;;;;;;;;4922410;29;20028;-86
2022/12/21 00:13:24;;;;;;;38.93;17.83;;;;;;;;;;4922541;29;20024;-85
2022/12/21 00:16:00;;;;;;;38.97;16.73;;;;;;;;;;4905534;29;20028;-85
2022/12/21 00:18:26;;;;;;;39.60;17.67;;;;;;;;;;4905246;29;20041;-85
2022/12/21 00:21:03;;;;;;;45.03;18.45;;;;;;;;;;4922168;29;20478;-85
2022/12/21 00:23:30;;;;;;;42.45;17.23;;;;;;;;;;4905580;29;20091;-86
2022/12/21 00:25:56;;;;;;;39.38;18.85;;;;;;;;;;4922569;29;20306;-85
2022/12/21 00:28:22;;;;;;;40.17;18.58;;;;;;;;;;4922275;29;20051;-85
2022/12/21 00:30:48;;;;;;;44.65;18.30;;;;;;;;;;4904783;29;20036;-86
2022/12/21 00:33:14;;;;;;;41.40;17.88;;;;;;;;;;4922130;29;20032;-85
2022/12/21 00:35:41;;;;;;;40.90;17.20;;;;;;;;;;4922100;29;20031;-85
2022/12/21 00:38:07;;;;;;;38.38;18.40;;;;;;;;;;4905151;29;20074;-85
2022/12/21 00:40:33;;;;;;;40.70;18.50;;;;;;;;;;4921912;29;20035;-84
2022/12/21 00:42:59;;;;;;;34.90;17.80;;;;;;;;;;4905265;29;20036;-86
2022/12/21 00:45:25;;;;;;;37.80;18.33;;;;;;;;;;4905147;29;20028;-85
2022/12/21 00:47:51;;;;;;;39.22;18.77;;;;;;;;;;4921814;29;20454;-85
2022/12/21 00:50:17;;;;;;;45.40;19.48;;;;;;;;;;4921697;29;20315;-86
2022/12/21 00:52:43;;;;;;;39.70;19.48;;;;;;;;;;4921610;29;20485;-86
2022/12/21 00:55:09;;;;;;;43.78;19.42;;;;;;;;;;4921656;29;20423;-85
2022/12/21 00:57:35;;;;;;;40.58;19.27;;;;;;;;;;4921505;29;20036;-85
2022/12/21 01:00:02;;;;;;;39.22;18.08;;;;;;;;;;4921773;29;20024;-85
2022/12/21 01:02:28;;;;;;;35.35;16.77;;;;;;;;;;4904962;29;20032;-85
2022/12/21 01:04:54;;;;;;;35.63;17.52;;;;;;;;;;4904814;29;20036;-86
2022/12/21 01:07:20;;;;;;;39.55;18.02;;;;;;;;;;4921490;29;20031;-86
2022/12/21 01:09:46;;;;;;;39.50;18.77;;;;;;;;;;4903584;29;20044;-85
2022/12/21 01:12:12;;;;;;;45.67;19.02;;;;;;;;;;4903964;29;20036;-87
2022/12/21 01:14:39;;;;;;;50.13;19.20;;;;;;;;;;4921480;29;20036;-85
2022/12/21 01:17:05;;;;;;;49.13;20.60;;;;;;;;;;4904629;29;20036;-86
2022/12/21 01:19:31;;;;;;;45.47;18.40;;;;;;;;;;4921340;29;20063;-86
2022/12/21 01:21:57;;;;;;;44.40;18.42;;;;;;;;;;4905147;29;20105;-86
2022/12/21 01:24:23;;;;;;;38.88;17.92;;;;;;;;;;4904849;29;20415;-86
2022/12/21 01:26:49;;;;;;;41.20;18.02;;;;;;;;;;4921334;29;20040;-87
2022/12/21 01:29:15;;;;;;;63.50;21.17;;;;;;;;;;4921145;29;20111;-87
2022/12/21 01:31:41;;;;;;;51.88;20.33;;;;;;;;;;4904536;29;20032;-87
2022/12/21 01:34:08;;;;;;;46.42;19.45;;;;;;;;;;4921191;29;20039;-87
2022/12/21 01:36:34;;;;;;;53.58;21.83;;;;;;;;;;4904341;29;20036;-86
2022/12/21 01:39:00;;;;;;;64.82;24.10;;;;;;;;;;4921012;29;20040;-87
2022/12/21 01:41:27;;;;;;;59.13;23.00;;;;;;;;;;4921314;29;20080;-86
2022/12/21 01:43:56;;;;;;;53.90;22.42;;;;;;;;;;4903618;29;20029;-87
2022/12/21 01:46:31;;;;;;;51.63;21.30;;;;;;;;;;4904320;29;20427;-87
2022/12/21 01:49:08;;;;;;;54.70;22.85;;;;;;;;;;4902062;29;20062;-86
2022/12/21 01:51:36;;;;;;;55.88;24.02;;;;;;;;;;4901952;29;20412;-86
2022/12/21 01:54:03;;;;;;;58.42;24.13;;;;;;;;;;4901177;29;20423;-86
2022/12/21 01:56:32;;;;;;;63.25;25.95;;;;;;;;;;4901960;29;20076;-86
2022/12/21 01:59:04;;;;;;;56.78;25.23;;;;;;;;;;4902164;29;20025;-87
2022/12/21 02:01:30;;;;;;;55.63;23.40;;;;;;;;;;4902069;29;20029;-86
2022/12/21 02:03:57;;;;;;;47.83;21.40;;;;;;;;;;4901942;29;20132;-86
2022/12/21 02:06:34;;;;;;;45.25;22.48;;;;;;;;;;4906115;29;20060;-87
2022/12/21 02:09:01;;;;;;;50.22;23.58;;;;;;;;;;4920810;29;20532;-86
2022/12/21 02:11:27;;;;;;;54.28;25.17;;;;;;;;;;4920758;29;20411;-85
2022/12/21 02:13:53;;;;;;;54.65;23.77;;;;;;;;;;4920735;29;20419;-86
2022/12/21 02:16:19;;;;;;;71.07;26.42;;;;;;;;;;4904239;29;20135;-85
2022/12/21 02:18:58;;;;;;;65.00;24.40;;;;;;;;;;4904283;29;20059;-86
2022/12/21 02:21:24;;;;;;;60.45;24.35;;;;;;;;;;4921056;29;20024;-85
2022/12/21 02:24:09;;;;;;;71.75;25.70;;;;;;;;;;4924087;29;20024;-86
2022/12/21 02:26:38;;;;;;;72.75;25.88;;;;;;;;;;4907547;29;20036;-87
2022/12/21 02:29:30;;;;;;;63.55;23.73;;;;;;;;;;4907106;29;20168;-86
2022/12/21 02:32:04;;;;;;;53.83;22.17;;;;;;;;;;4900226;29;20033;-86
2022/12/21 02:34:37;;;;;;;54.85;22.98;;;;;;;;;;4904248;29;20028;-85
2022/12/21 02:37:12;;;;;;;48.40;21.23;;;;;;;;;;4903887;29;20036;-86
2022/12/21 02:39:45;;;;;;;48.22;20.33;;;;;;;;;;4905465;29;20319;-86
2022/12/21 02:45:19;;;;;;;57.58;21.70;;;;;;;;;;4910653;29;20080;-86
2022/12/21 02:47:50;;;;;;;44.00;20.45;;;;;;;;;;4906962;29;20044;-86
2022/12/21 02:50:16;;;;;;;51.30;19.85;;;;;;;;;;4923944;29;20035;-86
2022/12/21 02:52:48;;;;;;;44.47;20.42;;;;;;;;;;4923510;29;20075;-86
2022/12/21 02:55:14;;;;;;;45.95;23.10;;;;;;;;;;4923783;29;20039;-87
2022/12/21 03:01:01;;;;;;;55.20;23.73;;;;;;;;;;4923789;29;20071;-86
2022/12/21 03:03:48;;;;;;;65.53;24.85;;;;;;;;;;4923876;29;20031;-84
2022/12/21 03:06:18;;;;;;;63.15;24.00;;;;;;;;;;4906401;29;20056;-86
2022/12/21 03:08:55;;;;;;;59.33;23.27;;;;;;;;;;4923763;29;20111;-86
2022/12/21 03:11:24;;;;;;;65.60;24.42;;;;;;;;;;4906913;29;20035;-87
2022/12/21 03:13:53;;;;;;;58.25;22.60;;;;;;;;;;4906142;29;20132;-86
2022/12/21 03:16:19;;;;;;;53.03;22.60;;;;;;;;;;4906724;29;20046;-87
2022/12/21 03:19:01;;;;;;;55.15;22.52;;;;;;;;;;4923518;29;20119;-87
2022/12/21 03:21:50;;;;;;;50.28;22.60;;;;;;;;;;4906424;29;20072;-87
2022/12/21 03:24:19;;;;;;;49.97;21.92;;;;;;;;;;4903607;29;20070;-87
2022/12/21 03:26:57;;;;;;;53.25;22.88;;;;;;;;;;4923307;29;20314;-86
2022/12/21 03:29:26;;;;;;;43.40;19.65;;;;;;;;;;4923236;29;20028;-86
2022/12/21 03:31:56;;;;;;;46.03;21.08;;;;;;;;;;4923295;29;20028;-87
2022/12/21 03:34:27;;;;;;;47.42;21.75;;;;;;;;;;4905677;29;20095;-86
2022/12/21 03:36:56;;;;;;;45.55;22.83;;;;;;;;;;4923059;29;20323;-87
2022/12/21 03:39:24;;;;;;;44.40;22.25;;;;;;;;;;4922771;29;20438;-86
2022/12/21 03:41:54;;;;;;;45.42;22.73;;;;;;;;;;4923013;29;20032;-87
2022/12/21 03:47:47;;;;;;;56.20;26.02;;;;;;;;;;4923096;29;20043;-87
2022/12/21 03:50:16;;;;;;;49.17;22.88;;;;;;;;;;4920105;29;20423;-86
2022/12/21 03:52:48;;;;;;;42.13;20.10;;;;;;;;;;4922950;29;20028;-86
2022/12/21 03:55:20;;;;;;;39.58;19.65;;;;;;;;;;4922828;29;20319;-87
2022/12/21 03:57:47;;;;;;;38.47;19.73;;;;;;;;;;4922498;29;20036;-85
2022/12/21 04:00:13;;;;;;;36.00;20.65;;;;;;;;;;4905966;29;20028;-87
2022/12/21 04:02:39;;;;;;;37.45;20.52;;;;;;;;;;4922402;29;20024;-86
2022/12/21 04:05:11;;;;;;;38.33;21.02;;;;;;;;;;4905684;29;20052;-86
2022/12/21 04:07:38;;;;;;;34.63;18.27;;;;;;;;;;4922849;29;20031;-87
2022/12/21 04:10:06;;;;;;;35.92;17.85;;;;;;;;;;4922813;29;20331;-86
2022/12/21 04:12:41;;;;;;;38.63;18.77;;;;;;;;;;4922361;29;20039;-86
2022/12/21 04:15:08;;;;;;;33.78;18.40;;;;;;;;;;4922093;29;20153;-86
2022/12/21 04:17:34;;;;;;;46.97;23.38;;;;;;;;;;4922247;29;20039;-86
2022/12/21 04:20:02;;;;;;;40.78;20.10;;;;;;;;;;4922521;29;20032;-86
2022/12/21 04:28:09;;;;;;;62.22;28.42;;;;;;;;;;4922440;29;20135;-85
2022/12/21 04:30:35;;;;;;;;;;;;;;;;;;4922367;29;20024;-85
2022/12/21 04:33:02;;;;;;;60.95;28.80;;;;;;;;;;4921901;29;20301;-86
2022/12/21 04:35:28;;;;;;;56.40;27.33;;;;;;;;;;4922037;29;20038;-84
2022/12/21 04:37:54;;;;;;;64.85;28.38;;;;;;;;;;4904963;29;20168;-84
2022/12/21 04:40:20;;;;;;;49.78;23.92;;;;;;;;;;4921367;29;20036;-85
2022/12/21 04:42:46;;;;;;;42.00;21.85;;;;;;;;;;4921674;29;20020;-84
2022/12/21 04:45:12;;;;;;;40.03;21.50;;;;;;;;;;4921377;29;20032;-84
2022/12/21 04:47:38;;;;;;;38.55;21.33;;;;;;;;;;4904999;29;20084;-84
2022/12/21 04:50:04;;;;;;;52.80;23.58;;;;;;;;;;4921443;29;20032;-84
2022/12/21 04:52:31;;;;;;;82.32;28.95;;;;;;;;;;4921858;29;20343;-84
2022/12/21 04:54:57;;;;;;;84.45;29.63;;;;;;;;;;4921766;29;20116;-84
2022/12/21 04:57:23;;;;;;;93.60;31.63;;;;;;;;;;4921351;29;20024;-84
2022/12/21 04:59:49;;;;;;;117.45;34.60;;;;;;;;;;4921377;29;20111;-84
2022/12/21 05:02:16;;;;;;;141.38;40.15;;;;;;;;;;4904870;29;20016;-85
2022/12/21 05:04:42;;;;;;;112.63;35.78;;;;;;;;;;4921000;29;20051;-84
2022/12/21 05:07:08;;;;;;;77.57;33.45;;;;;;;;;;4921582;29;20035;-85
2022/12/21 05:09:34;;;;;;;92.40;34.00;;;;;;;;;;4904813;29;20032;-85
2022/12/21 05:12:00;;;;;;;86.30;31.48;;;;;;;;;;4921224;29;20043;-84
2022/12/21 05:14:26;;;;;;;85.97;30.92;;;;;;;;;;4921143;29;20069;-85
2022/12/21 05:16:53;;;;;;;75.00;29.52;;;;;;;;;;4904605;29;20029;-85
2022/12/21 05:19:19;;;;;;;62.75;27.90;;;;;;;;;;4921550;29;20032;-85
2022/12/21 05:21:45;;;;;;;58.60;26.95;;;;;;;;;;4920986;29;20108;-85
2022/12/21 05:24:11;;;;;;;51.28;24.17;;;;;;;;;;4921291;29;20083;-85
2022/12/21 05:26:37;;;;;;;56.83;24.50;;;;;;;;;;4904544;29;20024;-83
2022/12/21 05:29:04;;;;;;;67.47;27.45;;;;;;;;;;4904406;29;20389;-85
2022/12/21 05:31:30;;;;;;;76.78;29.25;;;;;;;;;;4921066;29;20091;-85
2022/12/21 05:33:57;;;;;;;81.50;30.33;;;;;;;;;;4921301;29;20020;-85
2022/12/21 05:36:24;;;;;;;80.18;30.60;;;;;;;;;;4920977;29;20034;-85
2022/12/21 05:38:50;;;;;;;92.50;29.55;;;;;;;;;;4921112;29;20458;-85
2022/12/21 05:41:17;;;;;;;80.57;29.52;;;;;;;;;;4921031;29;20031;-84
2022/12/21 05:43:44;;;;;;;94.93;30.13;;;;;;;;;;4921424;29;20051;-85
2022/12/21 05:46:11;;;;;;;79.38;28.52;;;;;;;;;;4920863;29;20032;-85
2022/12/21 05:48:37;;;;;;;76.18;29.73;;;;;;;;;;4904221;29;20055;-84
2022/12/21 05:51:07;;;;;;;68.90;27.90;;;;;;;;;;4921297;29;20028;-85
2022/12/21 05:53:33;;;;;;;69.80;27.10;;;;;;;;;;4904127;29;20063;-85
2022/12/21 05:55:59;;;;;;;71.85;31.70;;;;;;;;;;4904209;29;20059;-84
2022/12/21 05:58:25;;;;;;;68.28;30.77;;;;;;;;;;4923421;29;20419;-84
2022/12/21 06:00:52;;;;;;;83.32;37.50;;;;;;;;;;4925018;29;20028;-84
2022/12/21 06:03:18;;;;;;;92.13;38.58;;;;;;;;;;4924668;29;20028;-84
2022/12/21 06:05:44;;;;;;;100.10;36.90;;;;;;;;;;4907663;29;20058;-84
2022/12/21 06:08:10;;;;;;;131.68;36.33;;;;;;;;;;4924589;29;20051;-84
2022/12/21 06:10:37;;;;;;;131.32;36.28;;;;;;;;;;4907850;29;20084;-85
2022/12/21 06:13:04;;;;;;;182.70;40.15;;;;;;;;;;4908030;29;20423;-83
2022/12/21 06:15:30;;;;;;;176.68;38.80;;;;;;;;;;4924379;29;20051;-84
2022/12/21 06:17:57;;;;;;;231.10;43.53;;;;;;;;;;4924539;29;20079;-85
2022/12/21 06:20:23;;;;;;;254.48;46.97;;;;;;;;;;4907769;29;20036;-85
2022/12/21 06:22:49;;;;;;;287.77;48.22;;;;;;;;;;4924109;29;20082;-84
2022/12/21 06:25:15;;;;;;;315.15;51.45;;;;;;;;;;4924258;29;20111;-85
2022/12/21 06:27:41;;;;;;;313.45;50.95;;;;;;;;;;4924198;29;20032;-84
2022/12/21 06:30:07;;;;;;;347.27;53.50;;;;;;;;;;4924151;29;20028;-85
2022/12/21 06:32:33;;;;;;;385.52;59.92;;;;;;;;;;4907342;29;20446;-84
2022/12/21 06:34:59;;;;;;;397.30;61.45;;;;;;;;;;4924478;29;20048;-85
2022/12/21 06:37:25;;;;;;;351.65;58.95;;;;;;;;;;4924201;29;20079;-85
2022/12/21 06:39:51;;;;;;;371.98;69.93;;;;;;;;;;4924268;29;20039;-85
2022/12/21 06:42:17;;;;;;;261.17;53.92;;;;;;;;;;4907053;29;20024;-85
2022/12/21 06:44:44;;;;;;;222.30;47.38;;;;;;;;;;4923937;29;20036;-84
2022/12/21 06:47:10;;;;;;;229.48;49.15;;;;;;;;;;4923660;29;20040;-84
2022/12/21 06:49:36;;;;;;;247.55;50.00;;;;;;;;;;4923863;29;20059;-85
2022/12/21 06:52:02;;;;;;;206.57;43.80;;;;;;;;;;4907199;29;20036;-84
2022/12/21 06:54:28;;;;;;;187.63;41.65;;;;;;;;;;4923856;29;20056;-84
2022/12/21 06:56:54;;;;;;;169.75;38.10;;;;;;;;;;4923604;29;20024;-84
2022/12/21 06:59:20;;;;;;;212.32;42.58;;;;;;;;;;4907136;29;20060;-84
2022/12/21 07:01:47;;;;;;;201.80;41.67;;;;;;;;;;4906735;29;20024;-84
2022/12/21 07:04:13;;;;;;;155.65;37.65;;;;;;;;;;4923515;29;20048;-84
2022/12/21 07:06:41;;;;;;;135.55;35.53;;;;;;;;;;4923126;29;20032;-84
2022/12/21 07:09:07;;;;;;;115.57;33.92;;;;;;;;;;4922674;29;20038;-85
2022/12/21 07:11:33;;;;;;;118.25;36.58;;;;;;;;;;4923425;29;20028;-85
2022/12/21 07:14:00;;;;;;;97.20;32.88;;;;;;;;;;4906036;29;20051;-85
2022/12/21 07:16:26;;;;;;;95.40;32.17;;;;;;;;;;4923337;29;20116;-85
2022/12/21 07:18:53;;;;;;;135.48;46.75;;;;;;;;;;4923370;29;20051;-85
2022/12/21 07:21:20;;;;;;;142.50;44.28;;;;;;;;;;4923169;29;20562;-84
2022/12/21 07:23:46;;;;;;;139.63;40.60;;;;;;;;;;4923124;29;20416;-84
2022/12/21 07:26:16;;;;;;;115.43;36.03;;;;;;;;;;4922819;29;20028;-85
2022/12/21 07:31:46;;;;;;;129.30;36.70;;;;;;;;;;4923234;29;20116;-84
2022/12/21 07:34:12;;;;;;;95.63;36.00;;;;;;;;;;4923265;29;20028;-85
2022/12/21 07:36:38;;;;;;;110.70;42.65;;;;;;;;;;4906125;29;20490;-83
2022/12/21 07:39:04;;;;;;;121.55;50.25;;;;;;;;;;4923196;29;20032;-84
2022/12/21 07:41:30;;;;;;;142.40;49.25;;;;;;;;;;4922413;29;20107;-84
2022/12/21 07:43:56;;;;;;;112.20;44.75;;;;;;;;;;4906070;29;20059;-85
2022/12/21 07:46:22;;;;;;;125.03;53.13;;;;;;;;;;4905824;29;20040;-84
2022/12/21 07:48:49;;;;;;;119.10;43.60;;;;;;;;;;4922879;29;20099;-85
2022/12/21 07:51:15;;;;;;;147.68;42.95;;;;;;;;;;4922819;29;20051;-85
2022/12/21 07:53:41;;;;;;;130.52;40.70;;;;;;;;;;4906172;29;20080;-85
2022/12/21 07:56:15;;;;;;;132.90;41.63;;;;;;;;;;4922486;29;20024;-85
2022/12/21 07:58:41;;;;;;;115.75;41.85;;;;;;;;;;4922758;29;20115;-85
2022/12/21 08:01:09;;;;;;;107.30;39.97;;;;;;;;;;4905024;29;20077;-86
2022/12/21 08:03:36;;;;;;;94.38;35.67;;;;;;;;;;4922615;29;20032;-85
2022/12/21 08:06:02;;;;;;;98.75;36.28;;;;;;;;;;4903821;29;20037;-85
2022/12/21 08:08:28;;;;;;;93.68;36.70;;;;;;;;;;4903506;29;20039;-85
2022/12/21 08:10:54;;;;;;;96.70;35.80;;;;;;;;;;4903471;29;20032;-83
2022/12/21 08:13:20;;;;;;;99.03;37.38;;;;;;;;;;4903460;29;20416;-85
2022/12/21 08:15:47;;;;;;;87.97;36.78;;;;;;;;;;4902670;29;20033;-85
2022/12/21 08:18:13;;;;;;;76.53;38.03;;;;;;;;;;4903010;29;20047;-85
2022/12/21 08:20:39;;;;;;;77.55;37.70;;;;;;;;;;4902895;29;20039;-85
2022/12/21 08:23:05;;;;;;;103.40;42.03;;;;;;;;;;4903091;29;20057;-84
2022/12/21 08:25:31;;;;;;;74.05;34.40;;;;;;;;;;4903101;29;20032;-83
2022/12/21 08:27:57;;;;;;;69.70;36.70;;;;;;;;;;4903272;29;20032;-84
2022/12/21 08:30:23;;;;;;;75.50;38.20;;;;;;;;;;4903014;29;20327;-84
2022/12/21 08:32:49;;;;;;;81.35;37.45;;;;;;;;;;4902950;29;20312;-83
2022/12/21 08:35:16;;;;;;;86.95;35.22;;;;;;;;;;4903518;29;20035;-85
2022/12/21 08:37:42;;;;;;;83.05;33.70;;;;;;;;;;4902663;29;20037;-85
2022/12/21 08:40:08;;;;;;;68.90;31.20;;;;;;;;;;4903072;29;20094;-84
2022/12/21 08:42:34;;;;;;;66.85;30.30;;;;;;;;;;4902977;29;20365;-84
2022/12/21 08:45:00;;;;;;;91.13;35.97;;;;;;;;;;4902961;29;20414;-84
2022/12/21 08:47:26;;;;;;;95.43;37.60;;;;;;;;;;4901996;29;20381;-84
2022/12/21 08:49:52;;;;;;;94.22;40.05;;;;;;;;;;4902792;29;20724;-84
2022/12/21 08:52:18;;;;;;;92.20;41.40;;;;;;;;;;4902835;29;20108;-83
2022/12/21 08:54:44;;;;;;;70.20;36.05;;;;;;;;;;4903014;29;20412;-84
2022/12/21 08:57:10;;;;;;;69.15;34.60;;;;;;;;;;4885512;29;20082;-83
2022/12/21 08:59:36;;;;;;;80.70;38.53;;;;;;;;;;4885574;29;20328;-83
2022/12/21 09:02:02;;;;;;;86.35;42.75;;;;;;;;;;4885152;29;20423;-83
2022/12/21 09:04:29;;;;;;;74.80;37.83;;;;;;;;;;4909224;29;20052;-84
2022/12/21 09:06:55;;;;;;;69.18;35.88;;;;;;;;;;4920727;29;20028;-83
2022/12/21 09:09:21;;;;;;;63.97;33.40;;;;;;;;;;4904094;29;20119;-82
2022/12/21 09:11:47;;;;;;;64.32;32.72;;;;;;;;;;4904305;29;20028;-82
2022/12/21 09:14:13;;;;;;;57.45;31.35;;;;;;;;;;4920278;29;20032;-83
2022/12/21 09:16:39;;;;;;;64.93;34.70;;;;;;;;;;4920773;29;20039;-85
2022/12/21 09:19:05;;;;;;;54.65;30.50;;;;;;;;;;4921595;29;20056;-84
2022/12/21 09:21:31;;;;;;;57.10;29.50;;;;;;;;;;4904482;29;20035;-83
2022/12/21 09:23:57;;;;;;;62.97;31.25;;;;;;;;;;4921178;29;20403;-83
2022/12/21 09:26:23;;;;;;;65.55;32.20;;;;;;;;;;4920971;29;20412;-83
2022/12/21 09:28:49;;;;;;;67.53;34.28;;;;;;;;;;4920953;29;20035;-80
2022/12/21 09:31:17;;;;;;;56.70;28.17;;;;;;;;;;4920812;29;20028;-83
2022/12/21 09:33:43;;;;;;;63.40;31.45;;;;;;;;;;4920465;29;20024;-82
2022/12/21 09:36:11;;;;;;;59.15;31.10;;;;;;;;;;4920349;29;20031;-82
2022/12/21 09:38:37;;;;;;;63.10;31.08;;;;;;;;;;4903163;29;20074;-81
2022/12/21 09:41:16;;;;;;;61.97;32.28;;;;;;;;;;4920119;29;20020;-81
2022/12/21 09:43:43;;;;;;;51.72;28.10;;;;;;;;;;4885404;29;20438;-83
2022/12/21 09:46:13;;;;;;;61.75;31.13;;;;;;;;;;4901128;29;20033;-81
2022/12/21 09:48:50;;;;;;;70.97;33.85;;;;;;;;;;4920592;29;20040;-82
2022/12/21 09:51:19;;;;;;;77.25;31.95;;;;;;;;;;4920556;29;20036;-83
2022/12/21 09:54:04;;;;;;;82.03;33.75;;;;;;;;;;4920254;29;20039;-82
2022/12/21 09:56:30;;;;;;;58.60;29.55;;;;;;;;;;4903245;29;20043;-82
2022/12/21 09:58:59;;;;;;;78.53;32.15;;;;;;;;;;4920495;29;20104;-82
2022/12/21 10:01:39;;;;;;;83.22;35.20;;;;;;;;;;4920297;29;20319;-82
2022/12/21 10:04:24;;;;;;;77.63;33.17;;;;;;;;;;4919999;29;20052;-82
2022/12/21 10:07:09;;;;;;;74.20;32.50;;;;;;;;;;4919856;29;20031;-81
2022/12/21 10:09:54;;;;;;;78.10;31.92;;;;;;;;;;4920259;29;20075;-81
2022/12/21 10:12:20;;;;;;;87.57;35.42;;;;;;;;;;4920284;29;20059;-80
2022/12/21 10:14:51;;;;;;;87.25;33.40;;;;;;;;;;4930941;29;20136;-82
2022/12/21 10:17:28;;;;;;;100.45;35.75;;;;;;;;;;4920606;29;20029;-82
2022/12/21 10:20:16;;;;;;;92.10;34.95;;;;;;;;;;4919893;29;20386;-81
2022/12/21 10:22:46;;;;;;;80.60;36.03;;;;;;;;;;4920295;29;20486;-82
2022/12/21 10:25:21;;;;;;;84.75;39.35;;;;;;;;;;4903050;29;20040;-82
2022/12/21 10:27:50;;;;;;;63.13;31.20;;;;;;;;;;4920371;29;20063;-82
2022/12/21 10:30:17;;;;;;;61.50;31.25;;;;;;;;;;4903663;29;20028;-83
2022/12/21 10:32:45;;;;;;;47.22;26.73;;;;;;;;;;4872043;29;20077;-83
2022/12/21 10:35:19;;;;;;;53.22;28.83;;;;;;;;;;4904551;29;20028;-82
2022/12/21 10:37:50;;;;;;;51.65;27.92;;;;;;;;;;4903095;29;20039;-82
2022/12/21 10:40:16;;;;;;;54.80;30.85;;;;;;;;;;4920390;29;20071;-82
2022/12/21 10:42:44;;;;;;;55.40;30.70;;;;;;;;;;4920190;29;20120;-83
2022/12/21 10:45:14;;;;;;;57.22;31.15;;;;;;;;;;4906520;29;20331;-82
2022/12/21 10:47:43;;;;;;;49.08;27.23;;;;;;;;;;4906662;29;20070;-82
2022/12/21 10:50:09;;;;;;;60.63;32.75;;;;;;;;;;4923660;29;20024;-82
2022/12/21 10:52:39;;;;;;;81.18;42.92;;;;;;;;;;4923456;29;20058;-82
2022/12/21 10:55:18;;;;;;;118.82;56.03;;;;;;;;;;4906685;29;20028;-82
2022/12/21 10:57:46;;;;;;;81.82;38.72;;;;;;;;;;4923177;29;20036;-82
2022/12/21 11:00:29;;;;;;;72.63;37.83;;;;;;;;;;4923176;29;20176;-83
2022/12/21 11:02:56;;;;;;;;;;;;;;;;;;4923879;29;20103;-81
2022/12/21 11:05:27;;;;;;;74.65;40.30;;;;;;;;;;4925793;29;19926;-83
2022/12/21 11:07:53;;;;;;;61.70;33.42;;;;;;;;;;4930236;29;20056;-83
2022/12/21 11:10:37;;;;;;;63.42;34.75;;;;;;;;;;4922984;29;20024;-82
2022/12/21 11:13:05;;;;;;;60.45;33.13;;;;;;;;;;4903277;29;20029;-82
2022/12/21 11:15:31;;;;;;;60.58;31.55;;;;;;;;;;4904149;29;20041;-82
2022/12/21 11:17:57;;;;;;;53.92;29.90;;;;;;;;;;4902916;29;20040;-82
2022/12/21 11:20:24;;;;;;;53.70;27.58;;;;;;;;;;4904122;29;20021;-82
2022/12/21 11:22:51;;;;;;;52.10;28.77;;;;;;;;;;4909049;29;20028;-82
2022/12/21 11:25:22;;;;;;;56.80;31.83;;;;;;;;;;4922671;29;20044;-81
2022/12/21 11:27:50;;;;;;;80.35;37.45;;;;;;;;;;4922488;29;20424;-81
2022/12/21 11:30:21;;;;;;;58.42;31.27;;;;;;;;;;4922547;29;20038;-82
2022/12/21 11:32:48;;;;;;;53.63;29.73;;;;;;;;;;4922725;29;20120;-81
2022/12/21 11:35:19;;;;;;;64.13;35.08;;;;;;;;;;4922954;29;20382;-82
2022/12/21 11:37:46;;;;;;;70.25;36.80;;;;;;;;;;4922778;29;20099;-82
2022/12/21 11:40:13;;;;;;;49.95;30.77;;;;;;;;;;4922532;29;20036;-82
2022/12/21 11:42:55;;;;;;;58.08;31.10;;;;;;;;;;4922843;29;20033;-82
2022/12/21 11:45:21;;;;;;;;;;;;;;;;;;4923275;29;20032;-81
2022/12/21 11:48:06;;;;;;;53.80;30.75;;;;;;;;;;4908032;29;19936;-81
2022/12/21 11:50:35;;;;;;;61.08;33.33;;;;;;;;;;4903840;29;20124;-82
2022/12/21 11:53:04;;;;;;;55.05;32.63;;;;;;;;;;4919083;29;20110;-82
2022/12/21 11:55:30;;;;;;;57.53;32.50;;;;;;;;;;4921395;29;20040;-82
2022/12/21 11:57:57;;;;;;;60.15;31.75;;;;;;;;;;4922303;29;20032;-82
2022/12/21 12:00:24;;;;;;;50.45;30.13;;;;;;;;;;4925642;29;20039;-82
2022/12/21 12:02:50;;;;;;;47.67;29.30;;;;;;;;;;4907603;29;20118;-82
2022/12/21 12:05:33;;;;;;;52.15;30.65;;;;;;;;;;4906573;29;20091;-81
2022/12/21 12:08:04;;;;;;;53.78;32.28;;;;;;;;;;4919998;29;20383;-82
2022/12/21 12:10:30;;;;;;;49.42;29.90;;;;;;;;;;4921190;29;20028;-81
2022/12/21 12:12:56;;;;;;;47.10;27.73;;;;;;;;;;4921715;29;20080;-81
2022/12/21 12:15:41;;;;;;;52.45;27.30;;;;;;;;;;4921847;29;20075;-82
2022/12/21 12:18:10;;;;;;;57.40;31.67;;;;;;;;;;4922146;29;20032;-82
2022/12/21 12:20:55;;;;;;;56.45;32.20;;;;;;;;;;4922090;29;20032;-82
2022/12/21 12:23:21;;;;;;;54.03;29.70;;;;;;;;;;4921925;29;20072;-82
2022/12/21 12:26:09;;;;;;;52.05;29.75;;;;;;;;;;4921785;29;20024;-82
2022/12/21 12:28:38;;;;;;;53.97;28.35;;;;;;;;;;4921635;29;20107;-82
2022/12/21 12:31:19;;;;;;;62.55;30.50;;;;;;;;;;4921072;29;20059;-82
2022/12/21 12:33:58;;;;;;;77.78;32.90;;;;;;;;;;4920532;29;20028;-82
2022/12/21 12:36:32;;;;;;;91.78;34.70;;;;;;;;;;4921136;29;20034;-83
2022/12/21 12:39:01;;;;;;;83.65;34.38;;;;;;;;;;4921666;29;20051;-82
2022/12/21 12:41:47;;;;;;;79.70;31.73;;;;;;;;;;4921664;29;20025;-82
2022/12/21 12:44:18;;;;;;;73.68;28.50;;;;;;;;;;4826802;29;20045;-82
2022/12/21 12:47:00;;;;;;;71.88;31.13;;;;;;;;;;4811523;29;20054;-81
2022/12/21 12:49:38;;;;;;;64.93;32.38;;;;;;;;;;4827038;29;20043;-81
2022/12/21 12:52:13;;;;;;;62.67;31.45;;;;;;;;;;4826920;29;20434;-81
2022/12/21 12:54:55;;;;;;;69.85;32.10;;;;;;;;;;4811428;29;20373;-81
2022/12/21 12:57:27;;;;;;;68.50;31.77;;;;;;;;;;4826694;29;20035;-81
2022/12/21 12:59:59;;;;;;;59.15;30.48;;;;;;;;;;4826757;29;20278;-81
2022/12/21 13:02:26;;;;;;;62.80;31.52;;;;;;;;;;4826363;29;20050;-81
2022/12/21 13:04:54;;;;;;;74.32;34.42;;;;;;;;;;4826438;29;20047;-82
2022/12/21 13:07:24;;;;;;;88.22;36.72;;;;;;;;;;4825747;29;20034;-81
2022/12/21 13:10:08;;;;;;;73.93;31.92;;;;;;;;;;4826189;29;20038;-81
2022/12/21 13:12:57;;;;;;;60.53;29.65;;;;;;;;;;4811033;29;20074;-82
2022/12/21 13:15:29;;;;;;;54.03;28.42;;;;;;;;;;4772185;30;20055;-82
2022/12/21 13:17:58;;;;;;;74.10;37.60;;;;;;;;;;4772188;30;20047;-82
2022/12/21 13:20:24;;;;;;;61.53;32.38;;;;;;;;;;4779584;29;20043;-82
2022/12/21 13:22:54;;;;;;;54.67;33.50;;;;;;;;;;4826297;29;20036;-82
2022/12/21 13:25:28;;;;;;;59.92;35.78;;;;;;;;;;4811195;29;20026;-81
2022/12/21 13:27:55;;;;;;;64.63;36.72;;;;;;;;;;4811185;29;20306;-82
2022/12/21 13:30:22;;;;;;;70.38;40.95;;;;;;;;;;4810854;29;20054;-82
2022/12/21 13:32:49;;;;;;;90.95;51.85;;;;;;;;;;4825617;29;20211;-81
2022/12/21 13:35:19;;;;;;;79.60;45.53;;;;;;;;;;4809911;29;20045;-81
2022/12/21 13:37:47;;;;;;;74.32;43.60;;;;;;;;;;4825779;29;20035;-83
2022/12/21 13:40:36;;;;;;;79.45;43.13;;;;;;;;;;4826239;29;20035;-81
2022/12/21 13:43:13;;;;;;;83.45;44.88;;;;;;;;;;4826314;29;20030;-81
2022/12/21 13:45:39;;;;;;;76.53;43.33;;;;;;;;;;4814956;29;20047;-81
2022/12/21 13:48:08;;;;;;;108.07;61.08;;;;;;;;;;4825908;29;20113;-81
2022/12/21 13:50:53;;;;;;;226.65;127.88;;;;;;;;;;4825934;29;20030;-81
2022/12/21 13:53:33;;;;;;;642.65;440.50;;;;;;;;;;4910997;29;20123;-81
2022/12/21 13:56:05;;;;;;;708.83;486.50;;;;;;;;;;4919655;29;20024;-82
2022/12/21 13:58:53;;;;;;;503.77;324.08;;;;;;;;;;4920075;29;20427;-81
2022/12/21 14:01:45;;;;;;;293.02;144.50;;;;;;;;;;4903332;29;20048;-83
2022/12/21 14:04:16;;;;;;;792.13;424.27;;;;;;;;;;4919735;29;20052;-83
2022/12/21 14:06:48;;;;;;;910.78;499.88;;;;;;;;;;4920466;29;20326;-82
2022/12/21 14:09:33;;;;;;;523.00;260.85;;;;;;;;;;4910246;29;20051;-82
2022/12/21 14:12:02;;;;;;;745.72;381.40;;;;;;;;;;4910276;29;20035;-83
2022/12/21 14:14:28;;;;;;;1108.80;580.45;;;;;;;;;;4919824;29;20036;-82
2022/12/21 14:17:23;;;;;;;1250.32;647.55;;;;;;;;;;4919956;29;20175;-82
2022/12/21 14:19:53;;;;;;;1088.20;571.88;;;;;;;;;;4831747;29;20436;-82
2022/12/21 14:22:35;;;;;;;1192.32;618.50;;;;;;;;;;4828863;29;20434;-82
2022/12/21 14:25:02;;;;;;;1245.25;636.65;;;;;;;;;;4828551;29;20445;-82
2022/12/21 14:27:28;;;;;;;1651.72;776.47;;;;;;;;;;4829028;29;20034;-82
2022/12/21 14:30:27;;;;;;;584.65;288.50;;;;;;;;;;4828894;29;20333;-82
2022/12/21 14:32:55;;;;;;;307.92;130.75;;;;;;;;;;4810965;29;20120;-82
2022/12/21 14:35:25;;;;;;;432.40;188.48;;;;;;;;;;4810933;29;20066;-82
2022/12/21 14:38:10;;;;;;;395.13;178.68;;;;;;;;;;4827038;29;20449;-82
2022/12/21 14:40:55;;;;;;;328.77;142.60;;;;;;;;;;4829083;29;20042;-83
2022/12/21 14:43:21;;;;;;;926.45;483.65;;;;;;;;;;4817682;29;20134;-82
2022/12/21 14:45:48;;;;;;;1117.28;574.03;;;;;;;;;;4828764;29;20056;-82